Time;durP1;ratioP1;P1;durP2;ratioP2;P2;SDS_P1;SDS_P2;PMS_P1;PMS_P2;Temp;Humidity;BMP_temperature;BMP_pressure;BME280_temperature;BME280_humidity;BME280_pressure;Samples;Min_cycle;Max_cycle;Signal;HPM_P1;HPM_P2
2023/01/22 00:04:02;;;;;;;14.53;8.47;;;;;;;-2.40;100.00;97144.38;10455426;28;20208;-74
2023/01/22 00:09:02;;;;;;;18.40;8.93;;;;;;;-2.36;100.00;97149.31;10455398;28;20204;-74
2023/01/22 00:14:03;;;;;;;18.93;9.57;;;;;;;-2.30;100.00;97153.31;10455405;28;20221;-74
2023/01/22 00:19:03;;;;;;;15.43;9.10;;;;;;;-2.29;100.00;97152.44;10454744;28;20249;-74
2023/01/22 00:24:03;;;;;;;18.50;9.43;;;;;;;-2.45;100.00;97154.84;10454917;28;20192;-74
2023/01/22 00:29:04;;;;;;;15.63;9.70;;;;;;;-2.43;100.00;97152.19;10455036;28;20180;-74
2023/01/22 00:34:04;;;;;;;19.30;9.53;;;;;;;-2.47;100.00;97160.91;10454364;28;20195;-74
2023/01/22 00:39:05;;;;;;;20.50;10.07;;;;;;;-2.43;100.00;97153.03;10454218;28;20231;-74
2023/01/22 00:44:09;;;;;;;17.57;9.87;;;;;;;-2.45;100.00;97157.41;10452709;28;20198;-74
2023/01/22 00:49:10;;;;;;;25.77;10.07;;;;;;;-2.39;100.00;97169.13;10453494;28;20206;-74
2023/01/22 00:54:11;;;;;;;16.80;10.47;;;;;;;-2.30;100.00;97173.03;10468786;28;20188;-74
2023/01/22 00:59:11;;;;;;;17.20;9.53;;;;;;;-2.35;100.00;97186.06;10452823;28;20199;-74
2023/01/22 01:04:13;;;;;;;16.73;8.90;;;;;;;-2.37;100.00;97187.84;10453011;28;20626;-74
2023/01/22 01:09:13;;;;;;;17.27;9.10;;;;;;;-2.34;100.00;97192.88;10451773;28;20234;-74
2023/01/22 01:14:13;;;;;;;15.67;9.50;;;;;;;-2.29;100.00;97192.66;10451567;28;20199;-74
2023/01/22 01:19:16;;;;;;;19.60;9.00;;;;;;;-2.34;100.00;97196.25;10450792;28;20325;-74
2023/01/22 01:24:16;;;;;;;14.50;8.10;;;;;;;-2.37;100.00;97193.81;10450698;28;20266;-74
2023/01/22 01:29:17;;;;;;;16.97;8.17;;;;;;;-2.39;100.00;97200.75;10452086;28;20196;-74
2023/01/22 01:34:18;;;;;;;17.93;7.90;;;;;;;-2.30;100.00;97199.50;10450432;28;20195;-74
2023/01/22 01:39:18;;;;;;;14.87;8.60;;;;;;;-2.38;100.00;97189.56;10451680;28;20235;-74
2023/01/22 01:44:21;;;;;;;19.70;8.27;;;;;;;-2.29;100.00;97195.22;10451177;28;20218;-74
2023/01/22 01:49:27;;;;;;;17.33;8.23;;;;;;;-2.17;100.00;97195.53;10450160;28;20730;-73
2023/01/22 01:54:29;;;;;;;17.23;8.00;;;;;;;-2.30;100.00;97199.50;10449560;28;20172;-74
2023/01/22 01:59:32;;;;;;;11.10;7.73;;;;;;;-2.28;100.00;97200.28;10432518;28;20210;-74
2023/01/22 02:04:32;;;;;;;25.20;8.90;;;;;;;-2.38;100.00;97207.53;10449080;28;20224;-74
2023/01/22 02:09:33;;;;;;;34.03;7.90;;;;;;;-2.34;100.00;97203.13;10448748;28;20183;-74
2023/01/22 02:14:36;;;;;;;14.87;7.03;;;;;;;-2.28;100.00;97219.97;10432585;28;20192;-74
2023/01/22 02:19:40;;;;;;;22.30;8.00;;;;;;;-2.36;100.00;97221.16;10432789;28;20238;-74
2023/01/22 02:24:40;;;;;;;21.27;8.40;;;;;;;-2.29;100.00;97226.84;10449205;28;20614;-74
2023/01/22 02:29:41;;;;;;;18.47;8.53;;;;;;;-2.36;100.00;97240.81;10448919;28;20191;-75
2023/01/22 02:34:44;;;;;;;15.53;8.10;;;;;;;-2.37;100.00;97240.00;10449081;28;20208;-75
2023/01/22 02:39:44;;;;;;;14.70;7.83;;;;;;;-2.36;100.00;97238.25;10450010;28;20255;-75
2023/01/22 02:44:45;;;;;;;16.73;7.60;;;;;;;-2.40;100.00;97237.56;10448539;28;20227;-75
2023/01/22 02:49:46;;;;;;;16.70;8.43;;;;;;;-2.36;100.00;97235.69;10448751;28;20192;-74
2023/01/22 02:54:47;;;;;;;22.47;7.87;;;;;;;-2.42;100.00;97241.94;10449919;28;20180;-75
2023/01/22 02:59:48;;;;;;;12.50;7.30;;;;;;;-2.33;100.00;97251.81;10449425;28;20271;-75
2023/01/22 03:04:49;;;;;;;12.93;6.83;;;;;;;-2.30;100.00;97250.81;10465102;28;20204;-75
2023/01/22 03:09:49;;;;;;;13.00;6.40;;;;;;;-2.33;100.00;97256.94;10456904;28;20652;-75
2023/01/22 03:25:28;;;;;;;10.30;6.70;;;;;;;-2.29;100.00;97260.19;10455808;28;20338;-74
2023/01/22 03:30:29;;;;;;;15.27;7.27;;;;;;;-2.21;100.00;97265.00;10456522;28;20267;-75
2023/01/22 03:35:29;;;;;;;12.23;7.13;;;;;;;-2.23;100.00;97264.25;10472307;28;20241;-75
2023/01/22 03:40:43;;;;;;;10.67;6.80;;;;;;;-2.26;100.00;97261.81;10471358;28;20250;-73
2023/01/22 03:45:44;;;;;;;13.50;8.30;;;;;;;-2.33;100.00;97262.06;10454673;28;20227;-74
2023/01/22 03:50:48;;;;;;;10.53;7.17;;;;;;;-2.30;100.00;97270.53;10454806;28;20214;-74
2023/01/22 03:55:56;;;;;;;14.27;7.50;;;;;;;-2.34;100.00;97269.84;10454082;28;20746;-74
2023/01/22 04:00:59;;;;;;;17.37;8.37;;;;;;;-2.34;100.00;97277.53;10455566;28;20187;-74
2023/01/22 04:06:02;;;;;;;15.63;7.70;;;;;;;-2.32;100.00;97280.84;10432547;28;20254;-74
2023/01/22 04:11:03;;;;;;;15.20;8.43;;;;;;;-2.29;100.00;97283.31;10466536;28;20229;-74
2023/01/22 04:16:04;;;;;;;19.67;9.00;;;;;;;-2.26;100.00;97285.75;10450499;28;20237;-74
2023/01/22 04:21:37;;;;;;;21.50;9.03;;;;;;;-2.31;100.00;97285.09;10439460;28;20207;-74
2023/01/22 04:26:40;;;;;;;18.10;8.40;;;;;;;-2.31;100.00;97287.66;10432167;28;20266;-74
2023/01/22 04:31:40;;;;;;;25.33;9.00;;;;;;;-2.28;100.00;97294.38;10450779;28;20817;-74
2023/01/22 04:36:57;;;;;;;36.00;9.00;;;;;;;-2.30;100.00;97291.88;10465490;28;20212;-74
2023/01/22 04:42:02;;;;;;;26.33;9.47;;;;;;;-2.30;100.00;97296.19;10432764;28;20236;-74
2023/01/22 04:47:02;;;;;;;76.50;11.43;;;;;;;-2.35;100.00;97297.22;10465677;28;20223;-74
2023/01/22 04:52:02;;;;;;;33.53;9.77;;;;;;;-2.27;100.00;97298.63;10449143;28;20184;-74
2023/01/22 04:57:04;;;;;;;49.93;10.30;;;;;;;-2.33;100.00;97302.28;10448162;28;20195;-74
2023/01/22 05:02:04;;;;;;;54.17;10.73;;;;;;;-2.26;100.00;97308.84;10449754;28;20196;-74
2023/01/22 05:07:06;;;;;;;53.77;11.17;;;;;;;-2.22;100.00;97305.25;10450879;28;20310;-74
2023/01/22 05:12:07;;;;;;;51.83;11.17;;;;;;;-2.28;100.00;97318.34;10451962;28;20730;-74
2023/01/22 05:17:13;;;;;;;68.27;13.07;;;;;;;-2.31;100.00;97313.34;10453132;28;20176;-75
2023/01/22 05:22:14;;;;;;;109.50;13.40;;;;;;;-2.34;100.00;97316.03;10451504;28;20187;-75
2023/01/22 05:27:15;;;;;;;66.80;11.97;;;;;;;-2.28;100.00;97320.91;10450472;28;20303;-75
2023/01/22 05:32:25;;;;;;;110.70;18.10;;;;;;;-2.27;100.00;97324.28;10467980;28;20279;-75
2023/01/22 05:37:30;;;;;;;168.00;18.73;;;;;;;-2.24;100.00;97337.81;10450382;28;20188;-75
2023/01/22 05:42:31;;;;;;;125.53;16.00;;;;;;;-2.23;100.00;97339.50;10450659;28;20730;-75
2023/01/22 05:47:32;;;;;;;76.17;13.27;;;;;;;-2.19;100.00;97353.03;10450780;28;20223;-74
2023/01/22 05:52:41;;;;;;;301.33;21.90;;;;;;;-2.21;100.00;97353.09;10466797;28;21108;-74
2023/01/22 05:57:45;;;;;;;379.43;22.47;;;;;;;-2.24;100.00;97353.22;10467157;28;20318;-74
2023/01/22 06:02:47;;;;;;;96.10;13.97;;;;;;;-2.20;100.00;97344.50;10450073;28;20202;-75
2023/01/22 06:07:48;;;;;;;433.17;29.20;;;;;;;-2.22;100.00;97360.84;10449701;28;20226;-74
2023/01/22 06:12:49;;;;;;;419.80;27.33;;;;;;;-2.07;100.00;97372.25;10451165;28;20191;-75
2023/01/22 06:17:49;;;;;;;205.83;16.17;;;;;;;-2.21;100.00;97368.50;10466343;28;20345;-74
2023/01/22 06:22:50;;;;;;;361.80;22.57;;;;;;;-2.23;100.00;97375.44;10450900;28;20241;-75
2023/01/22 06:27:51;;;;;;;80.67;12.47;;;;;;;-2.19;100.00;97387.25;10432710;28;20293;-74
2023/01/22 06:32:52;;;;;;;209.10;19.70;;;;;;;-2.19;100.00;97400.09;10466356;28;20199;-75
2023/01/22 06:37:52;;;;;;;297.33;19.90;;;;;;;-2.23;100.00;97408.78;10448505;28;20203;-76
2023/01/22 06:42:53;;;;;;;130.77;14.03;;;;;;;-2.19;100.00;97402.66;10457738;28;20199;-74
2023/01/22 06:47:53;;;;;;;463.90;24.90;;;;;;;-2.12;100.00;97416.06;10458741;28;20254;-74
2023/01/22 06:52:53;;;;;;;84.20;13.43;;;;;;;-2.15;100.00;97424.72;10456748;28;20195;-75
2023/01/22 06:57:54;;;;;;;266.80;21.33;;;;;;;-2.16;100.00;97433.34;10458726;28;20259;-74
2023/01/22 07:02:55;;;;;;;271.07;18.20;;;;;;;-2.10;100.00;97444.25;10457936;28;20187;-74
2023/01/22 07:07:56;;;;;;;510.23;28.03;;;;;;;-2.11;100.00;97445.13;10473461;28;20220;-74
2023/01/22 07:13:00;;;;;;;644.03;29.93;;;;;;;-2.05;100.00;97444.88;10458203;28;20286;-75
2023/01/22 07:18:00;;;;;;;670.97;41.47;;;;;;;-2.17;100.00;97446.22;10454081;28;20254;-75
2023/01/22 07:23:01;;;;;;;493.40;28.40;;;;;;;-2.15;100.00;97450.38;10456305;28;20283;-75
2023/01/22 07:28:03;;;;;;;111.83;19.63;;;;;;;-2.09;100.00;97449.31;10455887;28;20277;-74
2023/01/22 07:33:03;;;;;;;387.83;24.80;;;;;;;-2.11;100.00;97457.97;10457231;28;20286;-74
2023/01/22 07:38:04;;;;;;;362.40;25.07;;;;;;;-2.12;100.00;97469.16;10456461;28;20803;-75
2023/01/22 07:43:05;;;;;;;413.63;28.47;;;;;;;-2.12;100.00;97477.69;10470281;28;20199;-74
2023/01/22 07:48:09;;;;;;;169.27;19.40;;;;;;;-2.04;100.00;97477.38;10455024;28;20216;-76
2023/01/22 07:53:10;;;;;;;62.90;14.90;;;;;;;-2.00;100.00;97490.03;10455377;28;20668;-75
2023/01/22 07:58:11;;;;;;;101.80;18.53;;;;;;;-2.00;100.00;97490.03;10455983;28;20200;-75
2023/01/22 08:03:13;;;;;;;252.20;22.27;;;;;;;-2.00;100.00;97495.16;10455793;28;20200;-75
2023/01/22 08:08:16;;;;;;;216.97;18.67;;;;;;;-1.93;100.00;97508.63;10455348;28;20918;-75
2023/01/22 08:13:17;;;;;;;330.90;23.67;;;;;;;-1.98;100.00;97505.38;10455784;28;20189;-75
2023/01/22 08:18:17;;;;;;;229.60;18.63;;;;;;;-1.92;100.00;97510.28;10454866;28;20761;-75
2023/01/22 08:23:17;;;;;;;153.30;18.60;;;;;;;-1.92;100.00;97519.72;10455378;28;20202;-75
2023/01/22 08:28:18;;;;;;;341.27;21.80;;;;;;;-1.98;100.00;97524.22;10454956;28;20306;-74
2023/01/22 08:33:18;;;;;;;85.37;15.90;;;;;;;-1.90;100.00;97529.06;10454614;28;20199;-75
2023/01/22 08:38:19;;;;;;;192.33;17.70;;;;;;;-1.93;100.00;97542.00;10454325;28;20242;-75
2023/01/22 08:43:19;;;;;;;82.13;13.90;;;;;;;-1.82;100.00;97539.03;10453030;28;20192;-75
2023/01/22 08:48:20;;;;;;;93.03;14.13;;;;;;;-1.87;100.00;97551.19;10453902;28;20269;-75
2023/01/22 08:53:20;;;;;;;33.20;13.87;;;;;;;-1.72;100.00;97550.59;10453546;28;20195;-75
2023/01/22 08:58:21;;;;;;;52.10;11.83;;;;;;;-1.73;100.00;97553.22;10453639;28;20270;-74
2023/01/22 09:03:21;;;;;;;34.00;11.03;;;;;;;-1.74;100.00;97560.09;10453775;28;20195;-75
2023/01/22 09:08:22;;;;;;;106.00;13.83;;;;;;;-1.82;100.00;97552.69;10451478;28;20642;-75
2023/01/22 09:13:22;;;;;;;92.10;13.67;;;;;;;-1.67;100.00;97551.28;10453592;28;20286;-75
2023/01/22 09:18:24;;;;;;;44.13;13.00;;;;;;;-1.80;100.00;97558.59;10452481;28;20192;-75
2023/01/22 09:23:24;;;;;;;38.13;12.40;;;;;;;-1.81;100.00;97551.81;10452971;28;20895;-75
2023/01/22 09:28:25;;;;;;;30.77;13.20;;;;;;;-1.75;100.00;97542.19;10452500;28;20684;-75
2023/01/22 09:33:25;;;;;;;29.87;13.07;;;;;;;-1.74;100.00;97534.41;10452271;28;20755;-75
2023/01/22 09:38:25;;;;;;;50.40;15.70;;;;;;;-1.77;100.00;97542.25;10451952;28;20662;-75
2023/01/22 09:43:31;;;;;;;33.53;13.57;;;;;;;-1.62;100.00;97557.06;10451704;28;20565;-74
2023/01/22 09:48:35;;;;;;;53.37;16.57;;;;;;;-1.63;100.00;97554.53;10450734;28;20220;-74
2023/01/22 09:53:36;;;;;;;45.53;16.17;;;;;;;-1.87;100.00;97566.59;10450335;28;20219;-74
2023/01/22 09:58:36;;;;;;;29.97;13.70;;;;;;;-1.81;100.00;97572.34;10451240;28;20215;-74
2023/01/22 10:03:40;;;;;;;33.47;14.97;;;;;;;-1.65;100.00;97569.19;10451659;28;20199;-74
2023/01/22 10:08:54;;;;;;;31.03;14.67;;;;;;;-1.62;100.00;97556.22;10449698;28;20208;-74
2023/01/22 10:13:56;;;;;;;29.20;13.70;;;;;;;-1.55;100.00;97544.78;10450598;28;20191;-73
2023/01/22 10:19:05;;;;;;;31.70;15.03;;;;;;;-1.42;100.00;97549.44;10432751;28;20184;-74
2023/01/22 10:24:09;;;;;;;32.20;17.03;;;;;;;-1.51;100.00;97548.91;10448314;28;20619;-74
2023/01/22 10:29:33;;;;;;;36.27;18.47;;;;;;;-1.51;100.00;97536.06;10446509;28;20218;-74
2023/01/22 10:34:35;;;;;;;39.93;19.87;;;;;;;-1.57;100.00;97546.59;10445532;28;20626;-74
2023/01/22 10:39:40;;;;;;;30.73;15.13;;;;;;;-1.48;100.00;97546.22;10449626;28;20246;-73
2023/01/22 10:44:40;;;;;;;31.27;15.40;;;;;;;-1.46;100.00;97546.16;10450096;28;20219;-74
2023/01/22 10:49:41;;;;;;;33.37;16.87;;;;;;;-1.45;100.00;97540.97;10449902;28;20282;-74
2023/01/22 10:54:42;;;;;;;33.17;17.00;;;;;;;-1.45;100.00;97540.13;10450155;28;20261;-74
2023/01/22 10:59:48;;;;;;;72.60;38.17;;;;;;;-1.45;100.00;97527.28;10448870;28;20219;-74
2023/01/22 11:04:49;;;;;;;40.87;18.47;;;;;;;-1.56;100.00;97530.28;10449569;28;20668;-74
2023/01/22 11:10:05;;;;;;;31.57;16.40;;;;;;;-1.53;100.00;97525.03;10448023;28;20190;-74
2023/01/22 11:15:23;;;;;;;33.20;16.47;;;;;;;-1.68;100.00;97513.63;10448173;28;20563;-74
2023/01/22 11:20:27;;;;;;;29.67;15.23;;;;;;;-1.75;100.00;97509.63;10448759;28;20194;-73
2023/01/22 11:25:40;;;;;;;31.90;16.70;;;;;;;-1.60;100.00;97513.31;10448353;28;20707;-74
2023/01/22 11:30:48;;;;;;;32.03;15.50;;;;;;;-1.87;100.00;97530.66;10457148;28;20653;-74
2023/01/22 11:35:48;;;;;;;25.43;14.43;;;;;;;-2.00;100.00;97515.72;10455526;28;20306;-74
2023/01/22 11:41:00;;;;;;;34.43;18.57;;;;;;;-1.80;100.00;97504.66;10456373;28;20369;-74
2023/01/22 11:46:27;;;;;;;25.13;13.63;;;;;;;-1.84;100.00;97497.13;10456353;28;20504;-74
2023/01/22 11:51:35;;;;;;;23.17;13.67;;;;;;;-1.94;100.00;97483.84;10455382;28;20218;-74
2023/01/22 11:56:58;;;;;;;23.40;13.83;;;;;;;-1.83;100.00;97480.84;10454545;28;20626;-74
2023/01/22 12:02:21;;;;;;;30.30;17.30;;;;;;;-1.76;100.00;97461.75;10455105;28;20283;-75
2023/01/22 12:07:48;;;;;;;29.80;15.37;;;;;;;-1.89;100.00;97481.91;10455307;28;20661;-74
2023/01/22 12:13:14;;;;;;;28.33;14.77;;;;;;;-1.93;100.00;97485.53;10452633;28;20199;-74
2023/01/22 12:18:48;;;;;;;25.53;13.87;;;;;;;-1.93;100.00;97482.09;10452196;28;20622;-74
2023/01/22 12:24:06;;;;;;;30.83;14.67;;;;;;;-1.96;100.00;97470.22;10454521;28;20199;-74
2023/01/22 12:29:15;;;;;;;33.20;16.77;;;;;;;-1.76;100.00;97463.44;10454799;28;20222;-74
2023/01/22 12:34:20;;;;;;;34.80;16.40;;;;;;;-1.70;100.00;97471.75;10454355;28;20743;-74
2023/01/22 12:39:33;;;;;;;29.00;16.00;;;;;;;-1.86;100.00;97471.53;10452307;28;20238;-74
2023/01/22 12:44:52;;;;;;;31.27;16.93;;;;;;;-1.80;100.00;97473.84;10453931;28;20187;-74
2023/01/22 12:49:52;;;;;;;32.13;17.00;;;;;;;-1.72;100.00;97477.84;10452895;28;20207;-74
2023/01/22 12:54:54;;;;;;;36.00;18.97;;;;;;;-1.88;100.00;97480.19;10453326;28;20196;-74
2023/01/22 12:59:56;;;;;;;36.57;18.53;;;;;;;-1.98;100.00;97474.56;10453593;28;20632;-74
2023/01/22 13:05:09;;;;;;;42.17;19.50;;;;;;;-1.92;100.00;97479.47;10452168;28;20250;-75
2023/01/22 13:10:19;;;;;;;42.67;20.10;;;;;;;-1.90;100.00;97475.13;10452747;28;20195;-74
2023/01/22 13:15:21;;;;;;;47.60;21.20;;;;;;;-1.83;100.00;97484.25;10453039;28;20191;-74
2023/01/22 13:20:21;;;;;;;42.23;21.00;;;;;;;-1.91;100.00;97488.84;10452352;28;20710;-74
2023/01/22 13:25:25;;;;;;;49.87;22.97;;;;;;;-2.07;100.00;97493.72;10452242;28;20278;-75
2023/01/22 13:30:29;;;;;;;47.60;22.50;;;;;;;-2.04;100.00;97487.66;10452259;28;20196;-75
2023/01/22 13:35:30;;;;;;;49.83;24.33;;;;;;;-2.06;100.00;97504.84;10450773;28;20245;-75
2023/01/22 13:40:30;;;;;;;48.20;22.67;;;;;;;-2.12;100.00;97505.09;10451791;28;20231;-75
2023/01/22 13:45:32;;;;;;;49.50;24.30;;;;;;;-2.07;100.00;97523.72;10451625;28;20223;-75
2023/01/22 13:50:33;;;;;;;46.50;21.77;;;;;;;-1.98;100.00;97516.50;10449562;28;20294;-75
2023/01/22 13:55:33;;;;;;;41.63;20.47;;;;;;;-1.89;100.00;97512.72;10450080;28;20551;-75
2023/01/22 14:00:35;;;;;;;37.70;19.13;;;;;;;-2.12;100.00;97517.91;10451198;28;20191;-75
2023/01/22 14:05:35;;;;;;;41.67;19.03;;;;;;;-2.02;100.00;97526.94;10451200;28;20688;-75
2023/01/22 14:10:36;;;;;;;35.97;17.80;;;;;;;-2.06;100.00;97526.22;10450364;28;20184;-75
2023/01/22 14:15:37;;;;;;;38.10;18.37;;;;;;;-2.04;100.00;97536.44;10451527;28;20180;-75
2023/01/22 14:20:39;;;;;;;38.30;18.43;;;;;;;-2.12;100.00;97535.88;10450203;28;20715;-75
2023/01/22 14:25:43;;;;;;;41.13;19.40;;;;;;;-2.02;100.00;97540.63;10450712;28;20215;-75
2023/01/22 14:30:44;;;;;;;42.27;19.90;;;;;;;-2.02;100.00;97542.31;10450702;28;20196;-75
2023/01/22 14:35:44;;;;;;;33.70;18.00;;;;;;;-2.05;100.00;97532.19;10449829;28;20648;-75
2023/01/22 14:40:45;;;;;;;41.57;19.13;;;;;;;-1.92;100.00;97543.66;10450795;28;20251;-74
2023/01/22 14:45:45;;;;;;;37.57;17.70;;;;;;;-1.87;100.00;97536.63;10450036;28;20220;-75
2023/01/22 14:50:46;;;;;;;32.27;16.90;;;;;;;-1.87;100.00;97523.78;10450398;28;20264;-75
2023/01/22 14:55:47;;;;;;;31.13;16.50;;;;;;;-1.89;100.00;97533.28;10450003;28;20191;-75
2023/01/22 15:00:47;;;;;;;26.30;14.27;;;;;;;-1.87;100.00;97539.19;10451956;28;20691;-74
2023/01/22 15:05:51;;;;;;;31.27;16.50;;;;;;;-1.87;100.00;97546.06;10457770;28;20223;-74
2023/01/22 15:10:51;;;;;;;26.50;16.27;;;;;;;-1.98;100.00;97549.88;10457544;28;20192;-75
2023/01/22 15:15:52;;;;;;;29.50;15.50;;;;;;;-1.99;100.00;97547.34;10457704;28;20199;-75
2023/01/22 15:20:52;;;;;;;31.00;15.13;;;;;;;-1.99;100.00;97557.63;10457463;28;20290;-75
2023/01/22 15:26:04;;;;;;;26.57;14.20;;;;;;;-2.00;100.00;97555.97;10455816;28;20227;-75
2023/01/22 15:31:06;;;;;;;23.83;12.47;;;;;;;-2.02;100.00;97560.31;10456648;28;20246;-74
2023/01/22 15:36:07;;;;;;;24.27;12.67;;;;;;;-2.04;100.00;97564.66;10456734;28;20192;-76
2023/01/22 15:41:21;;;;;;;33.60;17.70;;;;;;;-2.00;100.00;97561.94;10456716;28;20227;-76
2023/01/22 15:46:23;;;;;;;22.80;13.57;;;;;;;-2.04;100.00;97567.22;10453017;28;20281;-75
2023/01/22 15:51:24;;;;;;;26.40;14.97;;;;;;;-2.03;100.00;97566.34;10430721;28;20738;-75
2023/01/22 15:56:27;;;;;;;20.23;12.23;;;;;;;-2.02;100.00;97579.13;10413235;28;20201;-75
2023/01/22 16:01:27;;;;;;;16.90;9.77;;;;;;;-2.07;100.00;97590.44;10414997;28;20199;-75
2023/01/22 16:06:29;;;;;;;21.00;11.83;;;;;;;-2.05;100.00;97592.06;10413761;28;20708;-75
2023/01/22 16:11:31;;;;;;;30.93;16.43;;;;;;;-2.04;100.00;97595.47;10414113;28;20662;-75
2023/01/22 16:16:35;;;;;;;24.10;15.27;;;;;;;-2.09;100.00;97615.34;10412585;28;20219;-75
2023/01/22 16:21:35;;;;;;;18.10;10.40;;;;;;;-2.01;100.00;97633.88;10412718;28;20195;-75
2023/01/22 16:26:36;;;;;;;14.50;8.30;;;;;;;-2.09;100.00;97623.88;10413800;28;20220;-75
2023/01/22 16:31:36;;;;;;;15.30;10.27;;;;;;;-2.08;100.00;97620.44;10413414;28;20311;-75
2023/01/22 16:36:37;;;;;;;17.90;10.03;;;;;;;-1.99;100.00;97622.66;10413061;28;20189;-75
2023/01/22 16:41:37;;;;;;;19.10;12.67;;;;;;;-2.01;100.00;97621.03;10413123;28;20239;-75
2023/01/22 16:46:42;;;;;;;16.20;9.63;;;;;;;-2.03;100.00;97630.53;10394774;28;20216;-75
2023/01/22 16:51:45;;;;;;;15.17;8.87;;;;;;;-2.04;100.00;97642.50;10413067;28;20189;-75
2023/01/22 16:56:46;;;;;;;15.80;8.43;;;;;;;-1.90;100.00;97649.75;10412417;28;20194;-75
2023/01/22 17:01:46;;;;;;;13.60;8.40;;;;;;;-2.00;100.00;97645.81;10411311;28;20185;-76
2023/01/22 17:06:52;;;;;;;15.07;8.20;;;;;;;-2.02;100.00;97645.03;10411896;28;20701;-76
2023/01/22 17:11:55;;;;;;;12.73;8.30;;;;;;;-2.05;100.00;97645.13;10411821;28;20675;-75
2023/01/22 17:16:56;;;;;;;12.97;8.07;;;;;;;-2.07;100.00;97647.75;10411583;28;20220;-76
2023/01/22 17:22:00;;;;;;;13.30;8.77;;;;;;;-2.05;100.00;97651.13;10410545;28;20188;-75
2023/01/22 17:27:03;;;;;;;14.80;8.13;;;;;;;-2.05;100.00;97656.25;10410111;28;20556;-76
2023/01/22 17:32:04;;;;;;;16.37;9.77;;;;;;;-2.03;100.00;97669.03;10411489;28;20188;-75
2023/01/22 17:37:09;;;;;;;23.60;12.40;;;;;;;-2.07;100.00;97665.72;10411260;28;20185;-75
2023/01/22 17:42:09;;;;;;;18.77;11.57;;;;;;;-2.04;100.00;97669.94;10410358;28;20592;-75
2023/01/22 17:47:09;;;;;;;24.30;13.40;;;;;;;-2.05;100.00;97688.78;10410829;28;20228;-75
2023/01/22 17:52:10;;;;;;;22.43;11.10;;;;;;;-1.91;100.00;97696.03;10410287;28;20195;-75
2023/01/22 17:57:10;;;;;;;14.10;8.50;;;;;;;-1.98;100.00;97696.25;10410157;28;20272;-76
2023/01/22 18:02:11;;;;;;;16.70;10.63;;;;;;;-2.02;100.00;97707.50;10410344;28;20189;-76
2023/01/22 18:07:11;;;;;;;32.87;18.60;;;;;;;-1.95;100.00;97709.84;10409990;28;20217;-76
2023/01/22 18:12:12;;;;;;;22.77;13.70;;;;;;;-1.92;100.00;97717.44;10408653;28;20223;-75
2023/01/22 18:17:12;;;;;;;25.13;11.50;;;;;;;-1.83;100.00;97725.66;10409814;28;20588;-75
2023/01/22 18:22:14;;;;;;;16.00;9.13;;;;;;;-1.77;100.00;97719.47;10409746;28;20633;-75
2023/01/22 18:27:44;;;;;;;32.53;16.33;;;;;;;-1.87;100.00;97726.66;10409361;28;20220;-75
2023/01/22 18:32:44;;;;;;;20.63;11.40;;;;;;;-1.97;100.00;97738.97;10455530;28;20222;-75
2023/01/22 18:37:45;;;;;;;23.30;13.00;;;;;;;-1.95;100.00;97741.50;10473305;28;20217;-74
2023/01/22 18:42:46;;;;;;;16.70;8.73;;;;;;;-1.91;100.00;97745.63;10466018;28;20235;-76
2023/01/22 18:47:50;;;;;;;14.97;8.33;;;;;;;-1.92;100.00;97743.94;10458597;28;20219;-74
2023/01/22 18:52:50;;;;;;;17.03;10.70;;;;;;;-1.85;100.00;97754.88;10458252;28;20330;-74
2023/01/22 18:57:55;;;;;;;20.20;12.30;;;;;;;-1.89;100.00;97751.53;10458071;28;20723;-73
2023/01/22 19:02:56;;;;;;;16.57;10.73;;;;;;;-1.91;100.00;97758.47;10458519;28;20199;-75
2023/01/22 19:07:57;;;;;;;28.13;18.83;;;;;;;-1.86;100.00;97759.16;10455306;28;20208;-76
2023/01/22 19:12:57;;;;;;;25.23;15.83;;;;;;;-1.83;100.00;97771.88;10455100;28;20649;-75
2023/01/22 19:17:58;;;;;;;19.60;11.50;;;;;;;-1.89;100.00;97764.38;10454586;28;20256;-76
2023/01/22 19:22:59;;;;;;;16.97;10.37;;;;;;;-1.93;100.00;97773.09;10470901;28;20199;-75
2023/01/22 19:27:59;;;;;;;14.63;8.67;;;;;;;-1.92;100.00;97782.47;10471032;28;20221;-75
2023/01/22 19:32:59;;;;;;;14.70;9.40;;;;;;;-1.90;100.00;97782.41;10473450;28;20191;-75
2023/01/22 19:38:00;;;;;;;15.70;8.37;;;;;;;-1.95;100.00;97785.13;10470085;28;20203;-75
2023/01/22 19:43:00;;;;;;;23.27;12.80;;;;;;;-1.93;100.00;97795.38;10472909;28;20194;-75
2023/01/22 19:48:05;;;;;;;17.93;10.90;;;;;;;-1.92;100.00;97785.03;10468366;28;20278;-75
2023/01/22 19:53:05;;;;;;;18.67;11.30;;;;;;;-1.93;100.00;97793.66;10471318;28;20191;-76
2023/01/22 19:58:06;;;;;;;18.03;10.23;;;;;;;-1.88;100.00;97796.06;10458738;28;20273;-76
2023/01/22 20:03:08;;;;;;;14.43;9.67;;;;;;;-1.87;100.00;97802.84;10453608;28;20192;-75
2023/01/22 20:08:09;;;;;;;13.77;7.93;;;;;;;-1.87;100.00;97802.84;10454068;28;20315;-75
2023/01/22 20:13:10;;;;;;;18.67;9.20;;;;;;;-1.86;100.00;97810.50;10471343;28;20682;-74
2023/01/22 20:18:10;;;;;;;14.00;8.57;;;;;;;-1.82;100.00;97809.53;10454295;28;20521;-75
2023/01/22 20:23:10;;;;;;;16.87;9.43;;;;;;;-1.83;100.00;97814.72;10452317;28;20583;-74
2023/01/22 20:28:12;;;;;;;15.50;9.77;;;;;;;-1.80;100.00;97814.59;10451429;28;20226;-74
2023/01/22 20:33:12;;;;;;;15.00;8.90;;;;;;;-1.78;100.00;97814.56;10451940;28;20192;-74
2023/01/22 20:38:13;;;;;;;17.50;10.33;;;;;;;-1.82;100.00;97817.22;10449165;28;20322;-75
2023/01/22 20:43:15;;;;;;;15.70;9.03;;;;;;;-1.78;100.00;97820.53;10458891;28;20199;-74
2023/01/22 20:48:16;;;;;;;16.57;8.93;;;;;;;-1.86;100.00;97819.94;10451318;28;20610;-75
2023/01/22 20:53:18;;;;;;;16.43;10.30;;;;;;;-1.91;100.00;97822.69;10450404;28;20210;-75
2023/01/22 20:58:18;;;;;;;19.30;10.83;;;;;;;-1.89;100.00;97835.47;10450716;28;20188;-74
2023/01/22 21:03:19;;;;;;;16.70;9.97;;;;;;;-1.88;100.00;97840.53;10451005;28;20587;-74
2023/01/22 21:08:19;;;;;;;25.93;10.63;;;;;;;-1.90;100.00;97844.91;10449507;28;20592;-74
2023/01/22 21:13:22;;;;;;;21.83;10.13;;;;;;;-1.93;100.00;97855.28;10450176;28;20729;-74
2023/01/22 21:18:22;;;;;;;18.50;9.70;;;;;;;-1.87;100.00;97860.22;10447395;28;20538;-75
2023/01/22 21:23:23;;;;;;;19.90;10.80;;;;;;;-1.90;100.00;97867.16;10450015;28;20199;-73
2023/01/22 21:28:23;;;;;;;21.77;11.27;;;;;;;-1.93;100.00;97870.69;10450772;28;20226;-73
2023/01/22 21:33:24;;;;;;;22.13;11.00;;;;;;;-1.93;100.00;97886.09;10450999;28;20188;-73
2023/01/22 21:38:24;;;;;;;24.93;13.03;;;;;;;-1.95;100.00;97882.72;10449959;28;20228;-73
2023/01/22 21:48:43;;;;;;;20.57;10.87;;;;;;;-1.88;100.00;97889.34;10449565;28;20718;-73
2023/01/22 21:53:44;;;;;;;25.23;11.67;;;;;;;-1.94;100.00;97897.25;10450450;28;20195;-73
2023/01/22 21:58:44;;;;;;;23.23;12.03;;;;;;;-1.88;100.00;97914.19;10450262;28;20192;-72
2023/01/22 22:03:44;;;;;;;23.23;11.20;;;;;;;-1.91;100.00;97907.41;10450108;28;20567;-73
2023/01/22 22:08:45;;;;;;;27.53;12.73;;;;;;;-1.89;100.00;97908.19;10449047;28;20246;-73
2023/01/22 22:13:45;;;;;;;21.50;10.83;;;;;;;-1.89;100.00;97918.47;10448049;28;20224;-73
2023/01/22 22:18:45;;;;;;;27.80;12.17;;;;;;;-1.86;100.00;97923.50;10448874;28;20250;-74
2023/01/22 22:23:46;;;;;;;25.70;11.97;;;;;;;-1.85;100.00;97930.34;10448331;28;20184;-73
2023/01/22 22:28:46;;;;;;;26.23;12.40;;;;;;;-1.86;100.00;97933.78;10449139;28;20219;-73
2023/01/22 22:33:48;;;;;;;30.03;11.93;;;;;;;-1.82;100.00;97934.53;10449273;28;20199;-74
2023/01/22 22:38:49;;;;;;;26.90;12.30;;;;;;;-1.77;100.00;97950.63;10448655;28;20263;-74
2023/01/22 22:43:51;;;;;;;31.87;13.50;;;;;;;-1.81;100.00;97956.75;10449195;28;20556;-74
2023/01/22 22:48:52;;;;;;;52.23;15.60;;;;;;;-1.83;100.00;97954.22;10448448;28;20224;-74
2023/01/22 22:54:02;;;;;;;38.93;14.43;;;;;;;-1.81;100.00;97949.91;10448884;28;20188;-75
2023/01/22 22:59:04;;;;;;;37.50;13.80;;;;;;;-1.83;100.00;97949.09;10448421;28;20240;-75